createdAt,value
2019-01-31T00:04:44.732Z,25.25
2019-01-31T00:07:31.711Z,25.60
2019-01-31T00:10:18.792Z,26.97
2019-01-31T00:13:05.962Z,26.03
2019-01-31T00:15:53.027Z,25.82
2019-01-31T00:18:40.066Z,24.05
2019-01-31T00:21:11.868Z,25.30
2019-01-31T00:23:58.833Z,27.00
2019-01-31T00:26:45.925Z,26.93
2019-01-31T00:29:20.594Z,28.20
2019-01-31T00:32:07.560Z,26.65
2019-01-31T00:34:54.512Z,27.60
2019-01-31T00:37:41.848Z,28.20
2019-01-31T00:40:28.795Z,26.93
2019-01-31T00:43:15.935Z,25.75
2019-01-31T00:46:02.884Z,26.45
2019-01-31T00:48:35.067Z,27.80
2019-01-31T00:51:22.131Z,28.23
2019-01-31T00:54:09.414Z,26.68
2019-01-31T00:56:56.362Z,27.25
2019-01-31T00:59:43.369Z,27.10
2019-01-31T01:02:25.153Z,26.25
2019-01-31T01:05:12.086Z,26.10
2019-01-31T01:07:59.081Z,30.25
2019-01-31T01:10:30.011Z,27.52
2019-01-31T01:13:17.340Z,27.35
2019-01-31T01:15:52.031Z,27.02
2019-01-31T01:18:32.574Z,28.40
2019-01-31T01:21:19.603Z,29.10
2019-01-31T01:23:54.772Z,28.25
2019-01-31T01:26:41.807Z,26.05
2019-01-31T01:29:28.862Z,27.30
2019-01-31T01:32:15.857Z,26.60
2019-01-31T01:35:02.893Z,28.32
2019-01-31T01:37:50.000Z,28.02
2019-01-31T01:40:37.007Z,28.32
2019-01-31T01:43:17.471Z,27.22
2019-01-31T01:46:04.563Z,26.30
2019-01-31T01:48:35.501Z,28.20
2019-01-31T01:51:22.564Z,26.85
2019-01-31T01:53:54.680Z,26.70
2019-01-31T01:56:25.387Z,26.30
2019-01-31T01:59:12.356Z,25.30
2019-01-31T02:01:59.387Z,26.75
2019-01-31T02:04:31.800Z,27.07
2019-01-31T02:07:18.724Z,26.73
2019-01-31T02:10:05.755Z,26.20
2019-01-31T02:12:52.783Z,27.70
2019-01-31T02:15:26.353Z,28.00
2019-01-31T02:17:58.727Z,28.47
2019-01-31T02:20:45.700Z,26.73
2019-01-31T02:23:32.826Z,25.57
2019-01-31T02:26:19.901Z,25.45
2019-01-31T02:29:06.861Z,26.62
2019-01-31T02:31:54.169Z,27.32
2019-01-31T02:34:41.269Z,25.17
2019-01-31T02:37:28.357Z,27.27
2019-01-31T02:40:15.310Z,24.63
2019-01-31T02:45:56.610Z,28.10
2019-01-31T02:48:43.922Z,25.72
2019-01-31T02:51:17.978Z,25.62
2019-01-31T02:53:53.344Z,24.90
2019-01-31T02:56:40.293Z,26.23
2019-01-31T02:59:27.276Z,26.87
2019-01-31T03:02:14.404Z,26.30
2019-01-31T03:04:46.752Z,28.05
2019-01-31T03:07:33.710Z,27.60
2019-01-31T03:10:08.888Z,26.37
2019-01-31T03:12:55.842Z,26.75
2019-01-31T03:15:30.729Z,26.87
2019-01-31T03:18:17.758Z,25.70
2019-01-31T03:21:04.824Z,23.10
2019-01-31T03:23:51.857Z,27.98
2019-01-31T03:26:38.884Z,25.77
2019-01-31T03:29:25.914Z,26.30
2019-01-31T03:32:13.268Z,25.97
2019-01-31T03:35:00.418Z,26.07
2019-01-31T03:37:47.523Z,26.12
2019-01-31T03:40:34.489Z,25.17
2019-01-31T03:46:15.701Z,26.82
2019-01-31T03:48:46.679Z,27.17
2019-01-31T03:51:17.094Z,29.40
2019-01-31T03:54:04.226Z,29.15
2019-01-31T03:56:51.332Z,28.77
2019-01-31T03:59:38.279Z,25.48
2019-01-31T04:02:25.265Z,26.45
2019-01-31T04:04:56.402Z,29.65
2019-01-31T04:07:24.434Z,28.07
2019-01-31T04:09:52.407Z,27.77
2019-01-31T04:12:20.381Z,29.63
2019-01-31T04:14:48.336Z,29.37
2019-01-31T04:17:16.284Z,30.27
2019-01-31T04:19:44.286Z,25.57
2019-01-31T04:22:12.323Z,26.15
2019-01-31T04:24:40.325Z,27.80
2019-01-31T04:27:08.295Z,25.88
2019-01-31T04:29:36.244Z,25.50
2019-01-31T04:32:04.218Z,26.17
2019-01-31T04:34:32.218Z,26.90
2019-01-31T04:37:00.258Z,26.10
2019-01-31T04:39:28.232Z,25.70
2019-01-31T04:41:56.213Z,29.87
2019-01-31T04:44:24.173Z,27.75
2019-01-31T04:46:52.352Z,24.55
2019-01-31T04:49:20.296Z,27.93
2019-01-31T04:51:48.315Z,25.60
2019-01-31T04:54:16.268Z,23.92
2019-01-31T04:56:44.203Z,26.77
2019-01-31T04:59:12.204Z,25.57
2019-01-31T05:01:40.166Z,26.65
2019-01-31T05:04:08.140Z,28.35
2019-01-31T05:06:36.244Z,26.60
2019-01-31T05:09:26.585Z,28.55
2019-01-31T05:11:54.617Z,26.62
2019-01-31T05:14:22.625Z,27.77
2019-01-31T05:16:50.620Z,29.45
2019-01-31T05:19:37.562Z,28.47
2019-01-31T05:22:05.549Z,27.67
2019-01-31T05:24:33.566Z,29.02
2019-01-31T05:27:04.367Z,86.65
2019-01-31T05:29:31.233Z,62.70
2019-01-31T05:31:59.188Z,50.65
2019-01-31T05:34:27.188Z,50.00
2019-01-31T05:36:55.141Z,51.45
2019-01-31T05:39:23.106Z,39.55
2019-01-31T05:41:51.361Z,37.45
2019-01-31T05:44:19.474Z,36.48
2019-01-31T05:46:47.433Z,35.50
2019-01-31T05:49:15.508Z,44.00
2019-01-31T05:51:43.455Z,37.50
2019-01-31T05:54:11.454Z,34.27
2019-01-31T05:56:39.419Z,40.15
2019-01-31T05:59:07.373Z,36.33
2019-01-31T06:01:35.365Z,34.23
2019-01-31T06:04:03.320Z,31.45
2019-01-31T06:06:31.282Z,32.98
2019-01-31T06:08:59.370Z,40.63
2019-01-31T06:11:27.316Z,51.50
2019-01-31T06:13:55.410Z,49.10
2019-01-31T06:16:23.388Z,48.55
2019-01-31T06:18:51.344Z,43.35
2019-01-31T06:21:19.421Z,33.35
2019-01-31T06:23:47.396Z,36.10
2019-01-31T06:26:15.339Z,35.40
2019-01-31T06:28:43.273Z,45.15
2019-01-31T06:31:11.202Z,43.40
2019-01-31T06:33:39.159Z,33.25
2019-01-31T06:36:07.253Z,33.92
2019-01-31T06:38:35.332Z,31.45
2019-01-31T06:41:03.271Z,36.03
2019-01-31T06:43:31.373Z,34.43
2019-01-31T06:45:59.412Z,32.83
2019-01-31T06:48:27.482Z,34.43
2019-01-31T06:50:55.448Z,31.82
2019-01-31T06:53:23.445Z,38.33
2019-01-31T06:55:51.416Z,33.20
2019-01-31T06:58:19.405Z,45.48
2019-01-31T07:00:47.428Z,50.67
2019-01-31T07:03:15.406Z,31.70
2019-01-31T07:05:43.381Z,31.73
2019-01-31T07:08:11.643Z,29.32
2019-01-31T07:10:39.585Z,32.25
2019-01-31T07:13:07.556Z,35.30
2019-01-31T07:15:35.566Z,29.57
2019-01-31T07:18:03.528Z,31.25
2019-01-31T07:20:31.511Z,32.67
2019-01-31T07:22:59.422Z,31.42
2019-01-31T07:25:27.425Z,33.75
2019-01-31T07:27:55.862Z,32.53
2019-01-31T07:30:26.691Z,32.53
2019-01-31T07:32:53.610Z,35.55
2019-01-31T07:35:21.544Z,32.17
2019-01-31T07:37:49.507Z,32.25
2019-01-31T07:40:18.333Z,32.03
2019-01-31T07:42:46.356Z,30.25
2019-01-31T07:45:15.998Z,31.80
2019-01-31T07:47:44.072Z,30.17
2019-01-31T07:50:32.910Z,28.60
2019-01-31T07:53:00.903Z,29.72
2019-01-31T07:58:16.047Z,28.23
2019-01-31T08:00:44.043Z,29.95
2019-01-31T08:03:11.993Z,29.32
2019-01-31T08:05:39.998Z,30.62
2019-01-31T08:08:07.957Z,31.65
2019-01-31T08:10:37.350Z,30.95
2019-01-31T08:13:25.749Z,31.20
2019-01-31T08:15:53.806Z,29.92
2019-01-31T08:18:21.718Z,29.23
2019-01-31T08:20:49.713Z,28.98
2019-01-31T08:23:17.625Z,29.57
2019-01-31T08:25:45.599Z,30.10
2019-01-31T08:28:13.633Z,31.52
2019-01-31T08:30:42.228Z,30.43
2019-01-31T08:35:52.374Z,31.45
2019-01-31T08:38:20.268Z,32.60
2019-01-31T08:40:48.256Z,30.10
2019-01-31T08:43:16.194Z,30.05
2019-01-31T08:45:46.712Z,31.68
2019-01-31T08:48:14.691Z,31.97
2019-01-31T08:50:42.750Z,32.90
2019-01-31T08:53:10.711Z,30.00
2019-01-31T08:55:38.739Z,31.90
2019-01-31T08:58:06.631Z,30.70
2019-01-31T09:00:34.603Z,29.85
2019-01-31T09:03:02.685Z,31.70
2019-01-31T09:05:30.666Z,31.85
2019-01-31T09:07:58.723Z,32.40
2019-01-31T09:10:28.007Z,31.50
2019-01-31T09:12:56.065Z,31.40
2019-01-31T09:15:24.485Z,33.47
2019-01-31T09:17:52.648Z,31.67
2019-01-31T09:20:39.660Z,30.47
2019-01-31T09:23:11.036Z,28.20
2019-01-31T09:25:57.988Z,30.80
2019-01-31T09:28:44.999Z,28.13
2019-01-31T09:31:32.016Z,31.00
2019-01-31T09:34:18.946Z,28.90
2019-01-31T09:37:05.921Z,29.57
2019-01-31T09:39:52.856Z,31.13
2019-01-31T09:42:39.855Z,31.97
2019-01-31T09:45:19.272Z,31.70
2019-01-31T09:47:59.336Z,30.47
2019-01-31T09:50:46.274Z,30.30
2019-01-31T09:53:33.282Z,29.13
2019-01-31T09:56:20.420Z,31.30
2019-01-31T09:59:07.551Z,32.47
2019-01-31T10:01:54.502Z,31.73
2019-01-31T10:04:25.262Z,31.40
2019-01-31T10:07:12.290Z,33.23
2019-01-31T10:09:59.376Z,32.87
2019-01-31T10:12:46.741Z,35.90
2019-01-31T10:15:33.850Z,33.53
2019-01-31T10:18:06.907Z,32.50
2019-01-31T10:20:53.840Z,32.10
2019-01-31T10:23:40.889Z,32.97
2019-01-31T10:26:27.857Z,31.50
2019-01-31T10:29:14.883Z,36.00
2019-01-31T10:32:01.821Z,32.70
2019-01-31T10:34:37.393Z,30.60
2019-01-31T10:37:24.454Z,31.40
2019-01-31T10:40:11.413Z,31.63
2019-01-31T10:42:52.324Z,29.70
2019-01-31T10:45:39.987Z,29.57
2019-01-31T10:51:02.518Z,32.57
2019-01-31T10:53:36.982Z,32.40
2019-01-31T10:56:23.984Z,31.33
2019-01-31T10:59:10.991Z,32.53
2019-01-31T11:01:58.004Z,28.53
2019-01-31T11:04:44.971Z,27.17
2019-01-31T11:07:31.952Z,29.33
2019-01-31T11:10:18.961Z,30.90
2019-01-31T11:13:01.081Z,30.27
2019-01-31T11:15:36.270Z,28.53
2019-01-31T11:18:09.149Z,28.83
2019-01-31T11:20:56.085Z,28.27
2019-01-31T11:23:43.381Z,30.03
2019-01-31T11:26:30.344Z,28.87
2019-01-31T11:29:17.350Z,30.53
2019-01-31T11:32:04.276Z,32.43
2019-01-31T11:34:51.223Z,31.50
2019-01-31T11:37:38.150Z,32.13
2019-01-31T11:40:25.169Z,32.60
2019-01-31T11:43:12.174Z,32.17
2019-01-31T11:45:59.205Z,32.43
2019-01-31T11:48:46.205Z,32.30
2019-01-31T11:51:33.242Z,31.00
2019-01-31T11:54:13.860Z,31.63
2019-01-31T11:57:05.439Z,31.87
2019-01-31T11:59:30.567Z,30.33
2019-01-31T12:01:58.451Z,32.83
2019-01-31T12:04:26.541Z,32.70
2019-01-31T12:06:54.493Z,31.10
2019-01-31T12:09:22.504Z,31.00
2019-01-31T12:11:50.736Z,32.00
2019-01-31T12:14:18.708Z,31.67
2019-01-31T12:16:46.692Z,30.53
2019-01-31T12:19:14.649Z,33.00
2019-01-31T12:21:42.631Z,32.23
2019-01-31T12:24:16.607Z,31.50
2019-01-31T12:26:40.452Z,31.80
2019-01-31T12:29:08.371Z,33.90
2019-01-31T12:31:36.725Z,31.67
2019-01-31T12:36:51.747Z,30.10
2019-01-31T12:39:19.715Z,31.33
2019-01-31T12:41:47.766Z,31.53
2019-01-31T12:44:15.756Z,29.60
2019-01-31T12:46:43.738Z,31.83
2019-01-31T12:49:11.701Z,30.13
2019-01-31T12:51:39.682Z,30.63
2019-01-31T12:54:07.728Z,28.50
2019-01-31T12:56:35.770Z,29.93
2019-01-31T12:59:22.721Z,29.80
2019-01-31T13:01:50.735Z,30.90
2019-01-31T13:04:20.632Z,29.80
2019-01-31T13:06:48.508Z,25.73
2019-01-31T13:09:16.441Z,28.77
2019-01-31T13:11:44.432Z,29.80
2019-01-31T13:14:12.398Z,29.50
2019-01-31T13:16:40.397Z,29.30
2019-01-31T13:19:08.844Z,27.40
2019-01-31T13:21:36.901Z,28.63
2019-01-31T13:24:05.038Z,32.33
2019-01-31T13:26:33.056Z,35.13
2019-01-31T13:29:20.605Z,35.40
2019-01-31T13:31:48.624Z,31.00
2019-01-31T13:34:16.794Z,33.30
2019-01-31T13:36:44.879Z,30.10
2019-01-31T13:39:16.454Z,31.77
2019-01-31T13:41:44.513Z,28.20
2019-01-31T13:44:12.721Z,29.27
2019-01-31T13:46:40.863Z,31.37
2019-01-31T13:49:08.942Z,31.03
2019-01-31T13:51:36.881Z,30.60
2019-01-31T13:54:05.687Z,29.70
2019-01-31T13:56:44.923Z,27.10
2019-01-31T13:59:16.996Z,25.83
2019-01-31T14:01:45.091Z,30.47
2019-01-31T14:04:13.040Z,34.77
2019-01-31T14:06:41.020Z,32.17
2019-01-31T14:09:09.683Z,28.97
2019-01-31T14:11:38.314Z,28.03
2019-01-31T14:14:09.028Z,28.17
2019-01-31T14:16:46.748Z,27.60
2019-01-31T14:19:06.087Z,27.40
2019-01-31T14:21:34.152Z,31.53
2019-01-31T14:24:02.389Z,32.50
2019-01-31T14:26:31.245Z,31.60
2019-01-31T14:28:59.663Z,29.30
2019-01-31T14:31:28.504Z,25.10
2019-01-31T14:33:57.382Z,25.33
2019-01-31T14:36:25.599Z,23.80
2019-01-31T14:38:54.294Z,23.47
2019-01-31T14:41:22.301Z,21.60
2019-01-31T14:43:50.369Z,23.80
2019-01-31T14:46:18.407Z,24.00
2019-01-31T14:48:46.405Z,28.60
2019-01-31T14:51:15.261Z,26.00
2019-01-31T14:53:43.312Z,25.30
2019-01-31T14:56:11.284Z,27.60
2019-01-31T14:58:39.696Z,28.67
2019-01-31T15:01:07.728Z,26.70
2019-01-31T15:03:35.872Z,25.80
2019-01-31T15:06:04.079Z,25.30
2019-01-31T15:08:32.042Z,27.90
2019-01-31T15:11:00.453Z,26.37
2019-01-31T15:13:28.466Z,26.33
2019-01-31T15:15:56.456Z,26.17
2019-01-31T15:18:24.639Z,45.27
2019-01-31T15:20:52.689Z,37.37
2019-01-31T15:23:20.621Z,30.93
2019-01-31T15:25:48.656Z,29.27
2019-01-31T15:28:16.664Z,26.23
2019-01-31T15:30:44.664Z,34.90
2019-01-31T15:33:13.381Z,33.07
2019-01-31T15:35:41.560Z,32.03
2019-01-31T15:38:09.504Z,28.90
2019-01-31T15:43:46.318Z,28.80
2019-01-31T15:46:14.285Z,31.30
2019-01-31T15:48:42.226Z,29.37
2019-01-31T15:51:10.408Z,31.30
2019-01-31T15:53:38.482Z,32.93
2019-01-31T15:56:07.369Z,27.87
2019-01-31T15:58:35.309Z,27.33
2019-01-31T16:04:05.882Z,28.10
2019-01-31T16:06:33.969Z,26.93
2019-01-31T16:09:01.881Z,28.40
2019-01-31T16:11:29.843Z,26.97
2019-01-31T16:13:57.873Z,28.90
2019-01-31T16:16:25.976Z,29.87
2019-01-31T16:18:54.017Z,33.20
2019-01-31T16:21:21.986Z,29.40
2019-01-31T16:23:50.028Z,31.47
2019-01-31T16:26:18.089Z,28.43
2019-01-31T16:28:46.092Z,29.50
2019-01-31T16:31:14.050Z,27.67
2019-01-31T16:33:42.092Z,28.47
2019-01-31T16:36:10.018Z,31.13
2019-01-31T16:38:37.915Z,32.33
2019-01-31T16:41:24.847Z,30.40
2019-01-31T16:43:52.810Z,29.37
2019-01-31T16:46:20.978Z,30.17
2019-01-31T16:48:48.944Z,29.87
2019-01-31T16:51:35.897Z,29.63
2019-01-31T16:54:03.832Z,29.70
2019-01-31T16:56:31.786Z,29.00
2019-01-31T16:58:59.785Z,34.40
2019-01-31T17:01:27.764Z,31.30
2019-01-31T17:03:55.743Z,33.33
2019-01-31T17:06:23.787Z,31.47
2019-01-31T17:08:51.893Z,32.00
2019-01-31T17:11:19.822Z,31.50
2019-01-31T17:13:47.795Z,31.30
2019-01-31T17:16:15.779Z,35.37
2019-01-31T17:18:43.839Z,31.80
2019-01-31T17:21:11.820Z,34.37
2019-01-31T17:23:39.873Z,34.93
2019-01-31T17:28:51.491Z,33.83
2019-01-31T17:31:19.444Z,34.57
2019-01-31T17:33:47.456Z,33.17
2019-01-31T17:36:15.425Z,35.27
2019-01-31T17:38:43.503Z,33.40
2019-01-31T17:41:11.429Z,33.57
2019-01-31T17:43:39.426Z,34.83
2019-01-31T17:48:51.966Z,34.03
2019-01-31T17:51:20.093Z,34.00
2019-01-31T17:53:48.070Z,35.13
2019-01-31T17:56:16.166Z,34.97
2019-01-31T17:58:44.119Z,34.67
2019-01-31T18:01:12.268Z,34.38
2019-01-31T18:03:40.254Z,34.27
2019-01-31T18:06:08.273Z,34.43
2019-01-31T18:08:36.611Z,33.70
2019-01-31T18:11:04.693Z,33.63
2019-01-31T18:13:32.753Z,34.73
2019-01-31T18:16:00.710Z,34.88
2019-01-31T18:18:28.811Z,33.98
2019-01-31T18:20:56.897Z,32.35
2019-01-31T18:23:24.826Z,33.90
2019-01-31T18:25:52.908Z,34.40
2019-01-31T18:28:20.859Z,34.23
2019-01-31T18:30:48.953Z,35.55
2019-01-31T18:33:16.933Z,34.83
2019-01-31T18:35:45.009Z,35.17
2019-01-31T18:38:13.092Z,35.15
2019-01-31T18:41:00.057Z,33.95
2019-01-31T18:43:28.099Z,33.53
2019-01-31T18:45:56.090Z,37.55
2019-01-31T18:51:06.189Z,37.78
2019-01-31T18:53:34.238Z,38.17
2019-01-31T18:56:15.495Z,37.70
2019-01-31T18:58:43.429Z,35.20
2019-01-31T19:01:11.497Z,37.42
2019-01-31T19:03:39.453Z,39.45
2019-01-31T19:06:07.409Z,36.33
2019-01-31T19:08:35.388Z,38.20
2019-01-31T19:11:03.329Z,35.88
2019-01-31T19:13:31.335Z,36.50
2019-01-31T19:16:05.236Z,37.63
2019-01-31T19:18:29.218Z,34.17
2019-01-31T19:20:57.190Z,35.13
2019-01-31T19:23:25.293Z,35.98
2019-01-31T19:25:53.356Z,37.17
2019-01-31T19:31:10.040Z,37.63
2019-01-31T19:33:38.004Z,38.23
2019-01-31T19:36:06.015Z,35.87
2019-01-31T19:38:34.032Z,37.60
2019-01-31T19:41:02.063Z,35.80
2019-01-31T19:43:30.109Z,36.07
2019-01-31T19:45:58.193Z,37.83
2019-01-31T19:48:26.232Z,37.77
2019-01-31T19:50:54.313Z,38.20
2019-01-31T19:53:22.281Z,35.90
2019-01-31T19:55:50.248Z,37.27
2019-01-31T19:58:18.226Z,39.83
2019-01-31T20:00:46.212Z,38.00
2019-01-31T20:03:14.296Z,38.30
2019-01-31T20:05:42.428Z,38.48
2019-01-31T20:08:11.220Z,36.27
2019-01-31T20:10:39.300Z,34.97
2019-01-31T20:13:07.549Z,40.53
2019-01-31T20:15:35.685Z,40.03
2019-01-31T20:18:03.709Z,37.90
2019-01-31T20:20:32.387Z,37.33
2019-01-31T20:23:00.966Z,41.33
2019-01-31T20:25:49.521Z,42.30
2019-01-31T20:28:17.722Z,42.67
2019-01-31T20:30:45.658Z,57.67
2019-01-31T20:33:13.665Z,50.53
2019-01-31T20:35:41.882Z,40.17
2019-01-31T20:38:09.883Z,37.77
2019-01-31T20:40:39.220Z,35.50
2019-01-31T20:43:07.628Z,39.03
2019-01-31T20:45:35.734Z,38.95
2019-01-31T20:48:03.892Z,41.30
2019-01-31T20:50:32.733Z,42.57
2019-01-31T20:53:00.749Z,42.77
2019-01-31T20:55:28.722Z,44.73
2019-01-31T20:57:56.729Z,41.67
2019-01-31T21:00:43.680Z,41.17
2019-01-31T21:03:11.876Z,37.13
2019-01-31T21:05:40.175Z,37.33
2019-01-31T21:08:08.691Z,36.97
2019-01-31T21:10:55.636Z,36.07
2019-01-31T21:13:23.663Z,36.03
2019-01-31T21:15:53.076Z,37.85
2019-01-31T21:18:21.336Z,38.90
2019-01-31T21:20:49.286Z,39.20
2019-01-31T21:23:17.342Z,26.67
2019-01-31T21:25:45.325Z,25.65
2019-01-31T21:28:13.391Z,26.75
2019-01-31T21:30:46.707Z,25.03
2019-01-31T21:33:14.767Z,25.30
2019-01-31T21:35:42.736Z,24.43
2019-01-31T21:38:10.809Z,25.80
2019-01-31T21:40:39.292Z,26.27
2019-01-31T21:43:07.435Z,28.60
2019-01-31T21:45:35.513Z,30.33
2019-01-31T21:48:03.725Z,32.37
2019-01-31T21:50:31.841Z,31.13
2019-01-31T21:53:00.096Z,33.33
2019-01-31T21:55:27.997Z,33.87
2019-01-31T21:57:56.105Z,32.20
2019-01-31T22:00:25.201Z,31.55
2019-01-31T22:02:53.302Z,38.48
2019-01-31T22:05:40.559Z,49.08
2019-01-31T22:08:08.642Z,32.20
2019-01-31T22:10:36.662Z,36.70
2019-01-31T22:13:04.870Z,29.20
2019-01-31T22:18:35.488Z,29.48
2019-01-31T22:21:03.384Z,27.90
2019-01-31T22:23:31.392Z,23.25
2019-01-31T22:25:59.336Z,26.10
2019-01-31T22:28:27.595Z,25.40
2019-01-31T22:31:14.629Z,26.50
2019-01-31T22:33:42.752Z,26.93
2019-01-31T22:36:10.666Z,23.77
2019-01-31T22:38:38.642Z,23.00
2019-01-31T22:41:06.750Z,23.50
2019-01-31T22:43:34.698Z,26.77
2019-01-31T22:46:02.642Z,23.65
2019-01-31T22:48:30.811Z,25.77
2019-01-31T22:50:58.816Z,24.93
2019-01-31T22:53:26.761Z,25.90
2019-01-31T22:55:54.741Z,24.90
2019-01-31T22:58:22.690Z,26.37
2019-01-31T23:01:28.627Z,34.00
2019-01-31T23:03:56.555Z,25.13
2019-01-31T23:06:24.816Z,22.97
2019-01-31T23:08:52.869Z,24.65
2019-01-31T23:11:21.024Z,24.95
2019-01-31T23:13:49.069Z,24.83
2019-01-31T23:16:17.090Z,26.20
2019-01-31T23:18:45.067Z,25.30
2019-01-31T23:21:13.177Z,25.80
2019-01-31T23:23:41.214Z,24.83
2019-01-31T23:26:09.338Z,26.27
2019-01-31T23:28:37.459Z,25.13
2019-01-31T23:31:05.541Z,26.20
2019-01-31T23:33:33.481Z,24.87
2019-01-31T23:36:01.464Z,24.57
2019-01-31T23:38:29.441Z,24.80
2019-01-31T23:40:57.405Z,25.97
2019-01-31T23:43:25.371Z,25.23
2019-01-31T23:45:53.320Z,25.73
2019-01-31T23:48:21.412Z,28.27
2019-01-31T23:50:49.366Z,26.63
2019-01-31T23:53:17.317Z,25.97
2019-01-31T23:56:04.265Z,26.70
2019-01-31T23:58:32.348Z,26.17
